Time;durP1;ratioP1;P1;durP2;ratioP2;P2;SDS_P1;SDS_P2;PMS_P1;PMS_P2;Temp;Humidity;BMP_temperature;BMP_pressure;BME280_temperature;BME280_humidity;BME280_pressure;Samples;Min_cycle;Max_cycle;Signal;HPM_P1;HPM_P2
2022/06/09 00:01:11;;;;;;;5.82;5.50;;;;;;;;;;5022142;28;20033;-65
2022/06/09 00:03:42;;;;;;;6.07;5.55;;;;;;;;;;5024658;28;20045;-65
2022/06/09 00:06:09;;;;;;;5.63;5.32;;;;;;;;;;5025735;28;20033;-65
2022/06/09 00:08:36;;;;;;;6.20;5.63;;;;;;;;;;5021746;28;20092;-64
2022/06/09 00:11:06;;;;;;;5.85;5.35;;;;;;;;;;5027773;28;20045;-64
2022/06/09 00:13:33;;;;;;;;;;;;;;;;;;5031209;28;20041;-64
2022/06/09 00:15:59;;;;;;;5.93;5.47;;;;;;;;;;5028792;28;19913;-64
2022/06/09 00:18:25;;;;;;;5.80;5.13;;;;;;;;;;5029541;28;20041;-64
2022/06/09 00:20:51;;;;;;;5.47;5.03;;;;;;;;;;5029487;28;20072;-65
2022/06/09 00:23:17;;;;;;;5.50;5.10;;;;;;;;;;5026335;28;20065;-65
2022/06/09 00:25:43;;;;;;;5.65;5.13;;;;;;;;;;5030693;28;20510;-65
2022/06/09 00:28:09;;;;;;;6.03;5.55;;;;;;;;;;5028946;28;20496;-64
2022/06/09 00:30:35;;;;;;;5.20;4.97;;;;;;;;;;5029294;28;20118;-65
2022/06/09 00:33:01;;;;;;;5.38;5.07;;;;;;;;;;5029968;28;20025;-65
2022/06/09 00:35:27;;;;;;;5.60;5.20;;;;;;;;;;5027993;28;20033;-66
2022/06/09 00:37:52;;;;;;;5.82;5.32;;;;;;;;;;5030012;28;20065;-65
2022/06/09 00:40:18;;;;;;;6.10;5.65;;;;;;;;;;5028730;28;20124;-66
2022/06/09 00:42:44;;;;;;;5.85;5.35;;;;;;;;;;5029664;28;20041;-65
2022/06/09 00:45:59;;;;;;;5.20;4.90;;;;;;;;;;5026475;28;20136;-65
2022/06/09 00:48:43;;;;;;;5.80;5.30;;;;;;;;;;4979925;28;20094;-65
2022/06/09 00:51:33;;;;;;;6.28;5.30;;;;;;;;;;5024232;28;20057;-65
2022/06/09 00:54:12;;;;;;;5.35;5.00;;;;;;;;;;5026990;28;20029;-65
2022/06/09 00:56:41;;;;;;;5.38;4.97;;;;;;;;;;5023572;28;20040;-65
2022/06/09 00:59:13;;;;;;;5.07;4.78;;;;;;;;;;5028078;28;20125;-65
2022/06/09 01:01:39;;;;;;;5.60;5.20;;;;;;;;;;5025243;28;20037;-65
2022/06/09 01:04:08;;;;;;;5.60;5.20;;;;;;;;;;5029338;28;20083;-65
2022/06/09 01:06:40;;;;;;;5.47;5.18;;;;;;;;;;5029600;28;20041;-66
2022/06/09 01:09:10;;;;;;;5.75;5.28;;;;;;;;;;5026903;28;20484;-65
2022/06/09 01:11:36;;;;;;;5.47;5.18;;;;;;;;;;5024037;28;20045;-65
2022/06/09 01:14:03;;;;;;;6.28;5.38;;;;;;;;;;5028277;28;20048;-66
2022/06/09 01:16:40;;;;;;;5.45;5.15;;;;;;;;;;5025577;28;20033;-65
2022/06/09 01:19:08;;;;;;;5.53;5.15;;;;;;;;;;5027487;28;20037;-68
2022/06/09 01:21:56;;;;;;;5.80;5.50;;;;;;;;;;5027967;28;20045;-68
2022/06/09 01:24:43;;;;;;;5.93;5.60;;;;;;;;;;5029084;28;20048;-66
2022/06/09 01:27:47;;;;;;;5.60;5.20;;;;;;;;;;5025698;28;20056;-68
2022/06/09 01:30:20;;;;;;;5.72;5.25;;;;;;;;;;5027812;28;20040;-68
2022/06/09 01:33:24;;;;;;;5.70;5.40;;;;;;;;;;5024166;28;20049;-66
2022/06/09 01:36:08;;;;;;;6.10;5.38;;;;;;;;;;5026702;28;20064;-67
2022/06/09 01:38:53;;;;;;;5.63;5.32;;;;;;;;;;5025129;28;20041;-67
2022/06/09 01:41:22;;;;;;;5.50;5.10;;;;;;;;;;5026108;28;20048;-67
2022/06/09 01:43:48;;;;;;;5.40;5.10;;;;;;;;;;5027383;28;20048;-66
2022/06/09 01:46:24;;;;;;;5.95;5.53;;;;;;;;;;5027272;28;20086;-66
2022/06/09 01:48:53;;;;;;;5.32;5.03;;;;;;;;;;5028623;28;20064;-66
2022/06/09 01:51:22;;;;;;;5.28;5.03;;;;;;;;;;5028555;28;20064;-65
2022/06/09 01:53:56;;;;;;;;;;;;;;;;;;5027029;28;20058;-65
2022/06/09 01:56:36;;;;;;;5.38;5.10;;;;;;;;;;5028512;28;20423;-65
2022/06/09 01:59:10;;;;;;;5.35;5.05;;;;;;;;;;5028615;28;20060;-66
2022/06/09 02:01:41;;;;;;;4.90;4.60;;;;;;;;;;5027782;28;20044;-66
2022/06/09 02:04:14;;;;;;;5.30;5.00;;;;;;;;;;5022727;28;20029;-66
2022/06/09 02:06:42;;;;;;;5.38;5.00;;;;;;;;;;5024923;28;20037;-66
2022/06/09 02:09:07;;;;;;;5.25;4.90;;;;;;;;;;5025413;28;20033;-66
2022/06/09 02:11:33;;;;;;;5.60;5.10;;;;;;;;;;5025570;28;20091;-66
2022/06/09 02:14:00;;;;;;;6.82;5.65;;;;;;;;;;5027755;28;20025;-66
2022/06/09 02:16:26;;;;;;;5.47;5.15;;;;;;;;;;5027123;28;20056;-66
2022/06/09 02:18:55;;;;;;;5.78;5.47;;;;;;;;;;5027607;28;20436;-66
2022/06/09 02:21:31;;;;;;;6.30;5.80;;;;;;;;;;5026015;28;20057;-66
2022/06/09 02:23:57;;;;;;;6.32;5.93;;;;;;;;;;5003551;28;20041;-66
2022/06/09 02:26:23;;;;;;;6.68;6.10;;;;;;;;;;5024562;28;20520;-65
2022/06/09 02:28:50;;;;;;;5.97;5.57;;;;;;;;;;5028877;28;20043;-66
2022/06/09 02:31:17;;;;;;;5.88;5.47;;;;;;;;;;5027787;28;20100;-65
2022/06/09 02:33:44;;;;;;;5.78;5.32;;;;;;;;;;5025873;28;20040;-66
2022/06/09 02:36:09;;;;;;;6.25;5.65;;;;;;;;;;5027693;28;20033;-66
2022/06/09 02:38:35;;;;;;;6.10;5.60;;;;;;;;;;5027775;28;20416;-65
2022/06/09 02:41:02;;;;;;;5.97;5.50;;;;;;;;;;5026079;28;20029;-66
2022/06/09 02:43:27;;;;;;;6.03;5.53;;;;;;;;;;5024352;28;20033;-66
2022/06/09 02:45:53;;;;;;;6.38;5.80;;;;;;;;;;5027619;28;20129;-66
2022/06/09 02:48:20;;;;;;;6.20;5.70;;;;;;;;;;5025746;28;20040;-66
2022/06/09 02:50:46;;;;;;;6.18;5.68;;;;;;;;;;5026193;28;20025;-66
2022/06/09 02:53:13;;;;;;;6.55;6.05;;;;;;;;;;5024517;28;20030;-66
2022/06/09 02:55:39;;;;;;;6.20;5.80;;;;;;;;;;5027591;28;20030;-65
2022/06/09 02:58:04;;;;;;;6.57;5.90;;;;;;;;;;5024052;28;20454;-65
2022/06/09 03:00:30;;;;;;;6.53;6.13;;;;;;;;;;5025065;28;20038;-65
2022/06/09 03:03:00;;;;;;;6.25;5.75;;;;;;;;;;5025547;28;20484;-66
2022/06/09 03:05:28;;;;;;;7.93;6.13;;;;;;;;;;5023882;28;20091;-65
2022/06/09 03:07:54;;;;;;;6.30;5.80;;;;;;;;;;5026297;28;20032;-63
2022/06/09 03:10:20;;;;;;;6.60;6.13;;;;;;;;;;5024591;28;20447;-65
2022/06/09 03:12:46;;;;;;;7.07;6.38;;;;;;;;;;5026379;28;20032;-64
2022/06/09 03:15:14;;;;;;;6.93;6.22;;;;;;;;;;5021001;28;20493;-64
2022/06/09 03:17:40;;;;;;;7.00;6.40;;;;;;;;;;5024737;28;20061;-64
2022/06/09 03:20:09;;;;;;;6.40;5.90;;;;;;;;;;5025702;28;20026;-64
2022/06/09 03:22:35;;;;;;;;;;;;;;;;;;5024911;28;20033;-64
2022/06/09 03:25:01;;;;;;;6.32;5.93;;;;;;;;;;5025217;28;20301;-64
2022/06/09 03:27:26;;;;;;;6.60;6.18;;;;;;;;;;5022899;28;20106;-65
2022/06/09 03:29:52;;;;;;;7.53;5.97;;;;;;;;;;5024805;28;20040;-64
2022/06/09 03:32:17;;;;;;;7.13;6.45;;;;;;;;;;5005582;28;20049;-64
2022/06/09 03:34:43;;;;;;;6.90;6.40;;;;;;;;;;5026429;28;20108;-65
2022/06/09 03:37:09;;;;;;;6.90;6.28;;;;;;;;;;5022686;28;20037;-64
2022/06/09 03:39:35;;;;;;;6.97;6.40;;;;;;;;;;5024993;28;20060;-65
2022/06/09 03:42:01;;;;;;;7.15;6.55;;;;;;;;;;5026194;28;20068;-64
2022/06/09 03:44:26;;;;;;;7.32;6.30;;;;;;;;;;5024633;28;20052;-65
2022/06/09 03:46:52;;;;;;;7.28;6.68;;;;;;;;;;5021155;28;20504;-64
2022/06/09 03:49:17;;;;;;;7.55;6.53;;;;;;;;;;5026060;28;20415;-65
2022/06/09 03:51:43;;;;;;;7.43;6.72;;;;;;;;;;5028114;28;20064;-64
2022/06/09 03:54:09;;;;;;;7.43;6.72;;;;;;;;;;5003817;28;20026;-65
2022/06/09 03:56:34;;;;;;;7.00;6.50;;;;;;;;;;5023026;28;20561;-64
2022/06/09 03:59:00;;;;;;;7.07;6.47;;;;;;;;;;5025641;28;20040;-65
2022/06/09 04:01:25;;;;;;;7.90;7.10;;;;;;;;;;5025650;28;20038;-64
2022/06/09 04:03:51;;;;;;;7.18;6.53;;;;;;;;;;5023796;28;20029;-64
2022/06/09 04:06:23;;;;;;;7.15;6.65;;;;;;;;;;5023327;28;20037;-64
2022/06/09 04:08:50;;;;;;;9.73;6.78;;;;;;;;;;5026471;28;20042;-64
2022/06/09 04:11:17;;;;;;;7.35;6.75;;;;;;;;;;5024119;28;20037;-64
2022/06/09 04:13:43;;;;;;;7.05;6.35;;;;;;;;;;5025349;28;20677;-64
2022/06/09 04:16:44;;;;;;;7.43;6.82;;;;;;;;;;5025570;28;20046;-64
2022/06/09 04:19:13;;;;;;;6.80;6.40;;;;;;;;;;4963631;28;20082;-64
2022/06/09 04:21:39;;;;;;;7.43;6.70;;;;;;;;;;4962383;28;20086;-64
2022/06/09 04:24:06;;;;;;;7.65;6.95;;;;;;;;;;4961593;28;20122;-64
2022/06/09 04:26:34;;;;;;;6.95;6.38;;;;;;;;;;4964473;28;20047;-64
2022/06/09 04:29:00;;;;;;;7.50;6.85;;;;;;;;;;4962982;28;20046;-61
2022/06/09 04:31:26;;;;;;;7.13;6.53;;;;;;;;;;4962411;28;20709;-63
2022/06/09 04:33:52;;;;;;;10.88;7.25;;;;;;;;;;4961510;28;20043;-64
2022/06/09 04:36:19;;;;;;;7.60;6.80;;;;;;;;;;4963518;28;20394;-64
2022/06/09 04:38:44;;;;;;;8.10;7.10;;;;;;;;;;4960637;28;20069;-63
2022/06/09 04:41:12;;;;;;;7.55;6.85;;;;;;;;;;4963640;28;20513;-64
2022/06/09 04:43:40;;;;;;;7.85;6.90;;;;;;;;;;4964138;28;20437;-64
2022/06/09 04:46:07;;;;;;;8.00;7.30;;;;;;;;;;4962809;28;20073;-64
2022/06/09 04:48:34;;;;;;;7.15;6.63;;;;;;;;;;4961211;28;20141;-64
2022/06/09 04:51:00;;;;;;;11.00;7.10;;;;;;;;;;4959663;28;20043;-64
2022/06/09 04:53:25;;;;;;;7.75;6.47;;;;;;;;;;4958084;28;20387;-64
2022/06/09 04:55:52;;;;;;;7.95;7.22;;;;;;;;;;5020937;28;20073;-64
2022/06/09 04:58:17;;;;;;;7.72;6.97;;;;;;;;;;5028328;28;20060;-64
2022/06/09 05:00:43;;;;;;;7.97;6.75;;;;;;;;;;5029381;28;20064;-63
2022/06/09 05:03:11;;;;;;;12.63;6.80;;;;;;;;;;5028369;28;20480;-64
2022/06/09 05:05:40;;;;;;;7.33;6.63;;;;;;;;;;5023898;28;20037;-64
2022/06/09 05:08:06;;;;;;;7.82;6.43;;;;;;;;;;5024873;28;20040;-64
2022/06/09 05:10:32;;;;;;;7.63;6.70;;;;;;;;;;5028518;28;20049;-63
2022/06/09 05:12:59;;;;;;;6.95;6.40;;;;;;;;;;5026196;28;20038;-64
2022/06/09 05:15:25;;;;;;;7.45;6.75;;;;;;;;;;5020770;28;20041;-64
2022/06/09 05:17:51;;;;;;;7.22;6.45;;;;;;;;;;5025891;28;20402;-64
2022/06/09 05:20:20;;;;;;;7.75;7.03;;;;;;;;;;5028174;28;20029;-64
2022/06/09 05:22:46;;;;;;;7.15;6.55;;;;;;;;;;5027895;28;20059;-64
2022/06/09 05:25:13;;;;;;;9.00;7.18;;;;;;;;;;5025945;28;20045;-64
2022/06/09 05:27:39;;;;;;;10.30;6.68;;;;;;;;;;5026432;28;20067;-63
2022/06/09 05:30:08;;;;;;;11.60;7.00;;;;;;;;;;5025964;28;20042;-64
2022/06/09 05:32:34;;;;;;;7.78;7.07;;;;;;;;;;5024454;28;20094;-64
2022/06/09 05:34:59;;;;;;;7.68;6.88;;;;;;;;;;5027405;28;20567;-65
2022/06/09 05:44:50;;;;;;;11.52;6.65;;;;;;;;;;5009252;28;20038;-64
2022/06/09 05:45:39;;;;;;;7.88;6.70;;;;;;;;;;5025516;28;20048;-64
2022/06/09 05:48:05;;;;;;;8.40;6.53;;;;;;;;;;5027609;28;20396;-65
2022/06/09 05:50:31;;;;;;;7.47;6.57;;;;;;;;;;5023868;28;20065;-64
2022/06/09 05:52:56;;;;;;;8.60;6.47;;;;;;;;;;5027061;28;20045;-64
2022/06/09 05:55:22;;;;;;;7.88;7.15;;;;;;;;;;5020406;28;20034;-65
2022/06/09 05:57:47;;;;;;;7.75;6.18;;;;;;;;;;5027733;28;20491;-65
2022/06/09 06:00:14;;;;;;;6.82;6.32;;;;;;;;;;5027741;28;20030;-65
2022/06/09 06:02:39;;;;;;;8.95;6.57;;;;;;;;;;5025495;28;20042;-65
2022/06/09 06:06:33;;;;;;;8.82;6.47;;;;;;;;;;5024841;28;20044;-64
2022/06/09 06:07:51;;;;;;;13.48;6.72;;;;;;;;;;5026030;28;20392;-64
2022/06/09 06:10:16;;;;;;;8.80;6.43;;;;;;;;;;5026036;28;20033;-64
2022/06/09 06:12:42;;;;;;;7.35;6.47;;;;;;;;;;5024928;28;20036;-64
2022/06/09 06:15:08;;;;;;;6.68;6.28;;;;;;;;;;5025373;28;20149;-65
2022/06/09 06:17:33;;;;;;;6.55;5.85;;;;;;;;;;5026824;28;20706;-65
2022/06/09 06:19:59;;;;;;;6.35;5.80;;;;;;;;;;5027836;28;20039;-64
2022/06/09 06:22:25;;;;;;;6.15;5.65;;;;;;;;;;5024003;28;20046;-64
2022/06/09 06:24:50;;;;;;;6.30;5.75;;;;;;;;;;5025311;28;20074;-64
2022/06/09 06:27:16;;;;;;;6.90;5.90;;;;;;;;;;5028266;28;20500;-64
2022/06/09 06:29:41;;;;;;;6.60;6.00;;;;;;;;;;5024878;28;20082;-65
2022/06/09 06:32:07;;;;;;;6.13;5.60;;;;;;;;;;5022488;28;20037;-64
2022/06/09 06:34:33;;;;;;;5.72;5.22;;;;;;;;;;5027678;28;20110;-64
2022/06/09 06:36:58;;;;;;;6.50;5.93;;;;;;;;;;5027793;28;20029;-64
2022/06/09 06:39:24;;;;;;;6.55;5.97;;;;;;;;;;5021686;28;20030;-64
2022/06/09 06:41:49;;;;;;;6.97;6.20;;;;;;;;;;5022345;28;20505;-64
2022/06/09 06:44:15;;;;;;;7.00;5.72;;;;;;;;;;5027404;28;20056;-65
2022/06/09 06:46:40;;;;;;;6.30;5.70;;;;;;;;;;5025763;28;20045;-64
2022/06/09 06:49:08;;;;;;;6.53;6.00;;;;;;;;;;5024790;28;20033;-64
2022/06/09 06:51:35;;;;;;;6.43;5.82;;;;;;;;;;5026382;28;20033;-65
2022/06/09 06:54:04;;;;;;;8.10;6.20;;;;;;;;;;5027055;28;20627;-63
2022/06/09 06:56:31;;;;;;;;;;;;;;;;;;5020789;28;20029;-64
2022/06/09 06:58:56;;;;;;;9.10;6.68;;;;;;;;;;5026513;28;20007;-64
2022/06/09 07:01:22;;;;;;;6.40;5.72;;;;;;;;;;5026825;28;20448;-64
2022/06/09 07:03:48;;;;;;;6.43;5.82;;;;;;;;;;5006237;28;20154;-64
2022/06/09 07:06:13;;;;;;;7.30;6.05;;;;;;;;;;5024214;28;20033;-64
2022/06/09 07:08:39;;;;;;;7.40;5.72;;;;;;;;;;5023127;28;20451;-64
2022/06/09 07:11:06;;;;;;;7.47;5.57;;;;;;;;;;5025892;28;20446;-64
2022/06/09 07:13:32;;;;;;;6.60;6.00;;;;;;;;;;5022513;28;20411;-63
2022/06/09 07:15:58;;;;;;;6.82;6.00;;;;;;;;;;5026607;28;20093;-64
2022/06/09 07:18:24;;;;;;;9.27;6.22;;;;;;;;;;5026733;28;20112;-64
2022/06/09 07:20:49;;;;;;;6.95;6.15;;;;;;;;;;5024305;28;20037;-64
2022/06/09 07:23:15;;;;;;;7.47;6.85;;;;;;;;;;5023809;28;20041;-64
2022/06/09 07:25:40;;;;;;;7.85;6.47;;;;;;;;;;5022202;28;20049;-64
2022/06/09 07:28:06;;;;;;;6.47;5.88;;;;;;;;;;5026990;28;20083;-64
2022/06/09 07:30:32;;;;;;;9.10;6.18;;;;;;;;;;5021085;28;20041;-64
2022/06/09 07:32:58;;;;;;;7.35;5.95;;;;;;;;;;5024992;28;20057;-63
2022/06/09 07:35:27;;;;;;;7.68;6.13;;;;;;;;;;5025102;28;20512;-64
2022/06/09 07:37:53;;;;;;;5.78;5.28;;;;;;;;;;5025378;28;20029;-63
2022/06/09 07:40:19;;;;;;;5.63;5.13;;;;;;;;;;5025455;28;20518;-64
2022/06/09 07:42:44;;;;;;;6.00;5.50;;;;;;;;;;5026455;28;20041;-65
2022/06/09 07:45:12;;;;;;;6.82;5.75;;;;;;;;;;5024712;28;20370;-65
2022/06/09 07:47:38;;;;;;;9.68;5.70;;;;;;;;;;5023030;28;20061;-64
2022/06/09 07:50:06;;;;;;;6.75;6.05;;;;;;;;;;5025758;28;20536;-64
2022/06/09 07:52:32;;;;;;;10.98;6.68;;;;;;;;;;5024412;28;20049;-65
2022/06/09 07:54:57;;;;;;;5.95;5.43;;;;;;;;;;5024091;28;20025;-64
2022/06/09 07:57:23;;;;;;;6.55;5.90;;;;;;;;;;5022273;28;20048;-65
2022/06/09 07:59:48;;;;;;;6.80;6.18;;;;;;;;;;5023343;28;20037;-65
2022/06/09 08:02:14;;;;;;;6.05;5.55;;;;;;;;;;5025355;28;20042;-65
2022/06/09 08:04:40;;;;;;;6.60;5.68;;;;;;;;;;5019430;28;20033;-65
2022/06/09 08:07:06;;;;;;;6.07;5.57;;;;;;;;;;5023415;28;20504;-64
2022/06/09 08:09:32;;;;;;;6.30;5.55;;;;;;;;;;5025695;28;20048;-65
2022/06/09 08:11:57;;;;;;;7.82;5.93;;;;;;;;;;5025922;28;20099;-62
2022/06/09 08:14:23;;;;;;;7.15;5.40;;;;;;;;;;5024638;28;20029;-65
2022/06/09 08:16:48;;;;;;;6.13;5.63;;;;;;;;;;5026103;28;20441;-64
2022/06/09 08:19:14;;;;;;;6.53;5.20;;;;;;;;;;5021849;28;20246;-65
2022/06/09 08:21:40;;;;;;;6.55;5.18;;;;;;;;;;5025714;28;20095;-65
2022/06/09 08:24:07;;;;;;;7.60;5.40;;;;;;;;;;5023198;28;20043;-65
2022/06/09 08:26:33;;;;;;;6.93;5.20;;;;;;;;;;5025871;28;20516;-64
2022/06/09 08:28:58;;;;;;;5.90;5.30;;;;;;;;;;5023691;28;20075;-64
2022/06/09 08:31:24;;;;;;;5.72;5.10;;;;;;;;;;5024993;28;20044;-64
2022/06/09 08:33:50;;;;;;;6.93;5.10;;;;;;;;;;5028910;28;20052;-63
2022/06/09 08:36:15;;;;;;;6.57;5.30;;;;;;;;;;5029801;28;20092;-64
2022/06/09 08:38:42;;;;;;;6.10;5.43;;;;;;;;;;5029534;28;20029;-64
2022/06/09 08:41:29;;;;;;;7.30;5.53;;;;;;;;;;5024943;28;20120;-64
2022/06/09 08:43:58;;;;;;;6.07;5.43;;;;;;;;;;5028646;28;20136;-64
2022/06/09 08:46:53;;;;;;;9.75;5.93;;;;;;;;;;5028720;28;20026;-64
2022/06/09 08:49:21;;;;;;;8.35;5.63;;;;;;;;;;5020232;28;20081;-64
2022/06/09 08:51:49;;;;;;;7.10;6.00;;;;;;;;;;5026123;28;20508;-64
2022/06/09 08:54:20;;;;;;;6.22;5.63;;;;;;;;;;5026314;28;20029;-63
2022/06/09 08:56:48;;;;;;;7.13;5.60;;;;;;;;;;5027017;28;20030;-64
2022/06/09 08:59:20;;;;;;;7.35;5.43;;;;;;;;;;5025216;28;20072;-64
2022/06/09 09:01:50;;;;;;;5.28;4.80;;;;;;;;;;5027878;28;20136;-64
2022/06/09 09:04:35;;;;;;;7.72;5.30;;;;;;;;;;5008734;28;20516;-64
2022/06/09 09:07:13;;;;;;;7.80;5.40;;;;;;;;;;5026944;28;20037;-63
2022/06/09 09:09:39;;;;;;;5.95;5.45;;;;;;;;;;5025817;28;20124;-64
2022/06/09 09:12:14;;;;;;;6.03;5.53;;;;;;;;;;5027031;28;20548;-64
2022/06/09 09:14:43;;;;;;;9.05;5.82;;;;;;;;;;5025500;28;20040;-64
2022/06/09 09:17:27;;;;;;;8.48;6.50;;;;;;;;;;5028801;28;20382;-64
2022/06/09 09:20:12;;;;;;;6.70;6.07;;;;;;;;;;5024020;28;20571;-64
2022/06/09 09:23:01;;;;;;;6.43;5.80;;;;;;;;;;5025731;28;20069;-64
2022/06/09 09:25:42;;;;;;;6.80;5.72;;;;;;;;;;5027363;28;20112;-62
2022/06/09 09:28:30;;;;;;;5.95;5.40;;;;;;;;;;5024473;28;20385;-63
2022/06/09 09:31:20;;;;;;;8.32;6.40;;;;;;;;;;5026011;28;20037;-64
2022/06/09 09:33:46;;;;;;;6.72;6.18;;;;;;;;;;5014181;28;20057;-64
2022/06/09 09:36:22;;;;;;;7.00;5.70;;;;;;;;;;5028880;28;20396;-63
2022/06/09 09:39:08;;;;;;;7.22;5.70;;;;;;;;;;5026756;28;20704;-64
2022/06/09 09:41:37;;;;;;;7.72;5.78;;;;;;;;;;5009164;28;20037;-63
2022/06/09 09:44:16;;;;;;;5.88;5.10;;;;;;;;;;5028184;28;20392;-62
2022/06/09 09:46:47;;;;;;;8.38;5.65;;;;;;;;;;5003758;28;20044;-63
2022/06/09 09:49:33;;;;;;;6.70;5.88;;;;;;;;;;5024683;28;20029;-64
2022/06/09 09:52:00;;;;;;;7.18;5.32;;;;;;;;;;5050236;22;20049;-66
2022/06/09 09:54:29;;;;;;;5.82;4.85;;;;;;;;;;5037135;28;20061;-66
2022/06/09 09:57:14;;;;;;;;;;;;;;;;;;5017481;28;20045;-66
2022/06/09 09:59:46;;;;;;;5.60;5.10;;;;;;;;;;5022598;28;20459;-65
2022/06/09 10:08:41;;;;;;;7.38;4.78;;;;;;;;;;5018849;28;20148;-67
2022/06/09 10:14:27;;;;;;;5.32;4.90;;;;;;;;;;4990224;28;20081;-66
2022/06/09 10:16:54;;;;;;;6.65;6.00;;;;;;;;;;4991993;28;20141;-66
2022/06/09 10:19:23;;;;;;;6.90;5.60;;;;;;;;;;4999109;28;20141;-65
2022/06/09 10:21:56;;;;;;;5.90;5.30;;;;;;;;;;4996002;28;20037;-66
2022/06/09 10:24:31;;;;;;;5.60;5.13;;;;;;;;;;4988309;28;20046;-66
2022/06/09 10:26:58;;;;;;;4.75;4.32;;;;;;;;;;4995195;28;20049;-67
2022/06/09 10:29:36;;;;;;;9.10;4.68;;;;;;;;;;4996811;28;20046;-65
2022/06/09 10:32:31;;;;;;;5.35;4.88;;;;;;;;;;4991246;28;20782;-65
2022/06/09 10:35:12;;;;;;;5.07;4.57;;;;;;;;;;4914535;29;20099;-65
2022/06/09 10:37:53;;;;;;;7.80;5.00;;;;;;;;;;4913742;29;20039;-66
2022/06/09 10:40:28;;;;;;;6.03;5.53;;;;;;;;;;4912084;29;20135;-66
2022/06/09 10:43:03;;;;;;;5.70;5.18;;;;;;;;;;4914653;29;20672;-66
2022/06/09 10:45:41;;;;;;;6.63;5.13;;;;;;;;;;4916437;29;20056;-67
2022/06/09 10:57:00;;;;;;;5.88;4.97;;;;;;;;;;4951243;28;20042;-65
2022/06/09 10:59:36;;;;;;;5.85;5.25;;;;;;;;;;4953269;28;20043;-67
2022/06/09 11:02:03;;;;;;;5.68;5.18;;;;;;;;;;4955614;28;20043;-66
2022/06/09 11:04:35;;;;;;;7.10;5.97;;;;;;;;;;4953918;28;20042;-66
2022/06/09 11:07:33;;;;;;;5.30;4.80;;;;;;;;;;4960169;28;20445;-66
2022/06/09 11:10:27;;;;;;;5.43;4.93;;;;;;;;;;4955815;28;20035;-66
2022/06/09 11:12:56;;;;;;;6.50;6.00;;;;;;;;;;5004546;28;20084;-66
2022/06/09 11:15:33;;;;;;;5.95;5.45;;;;;;;;;;5014628;28;20412;-65
2022/06/09 11:18:08;;;;;;;8.93;4.80;;;;;;;;;;5019911;28;20029;-66
2022/06/09 11:21:17;;;;;;;4.95;4.55;;;;;;;;;;5020776;28;20041;-66
2022/06/09 11:24:34;;;;;;;4.20;3.90;;;;;;;;;;5014631;28;20037;-67
2022/06/09 11:27:15;;;;;;;8.77;5.30;;;;;;;;;;5018351;28;20072;-66
2022/06/09 11:29:43;;;;;;;5.70;5.07;;;;;;;;;;5019500;28;20140;-66
2022/06/09 11:32:38;;;;;;;5.85;5.40;;;;;;;;;;5010747;28;20192;-66
2022/06/09 11:35:13;;;;;;;6.80;5.78;;;;;;;;;;5017798;28;20037;-67
2022/06/09 11:37:57;;;;;;;5.95;5.35;;;;;;;;;;5016669;28;20124;-66
2022/06/09 11:40:23;;;;;;;5.72;5.22;;;;;;;;;;5017392;28;20049;-65
2022/06/09 11:43:33;;;;;;;5.50;5.20;;;;;;;;;;5017394;28;20069;-66
2022/06/09 11:46:03;;;;;;;6.07;5.53;;;;;;;;;;5021782;28;20400;-66
2022/06/09 11:48:43;;;;;;;6.95;5.75;;;;;;;;;;5020795;28;20082;-67
2022/06/09 11:51:10;;;;;;;6.40;5.78;;;;;;;;;;5007959;28;20038;-65
2022/06/09 11:53:40;;;;;;;6.43;5.43;;;;;;;;;;5017429;28;20034;-66
2022/06/09 11:56:45;;;;;;;9.43;5.75;;;;;;;;;;5014746;28;20079;-66
2022/06/09 11:59:10;;;;;;;6.47;5.55;;;;;;;;;;5009631;28;20088;-66
2022/06/09 12:01:39;;;;;;;6.57;5.90;;;;;;;;;;5018588;28;20037;-67
2022/06/09 12:04:32;;;;;;;9.15;5.63;;;;;;;;;;5022450;28;20061;-67
2022/06/09 12:07:13;;;;;;;7.28;5.30;;;;;;;;;;5023315;28;20029;-66
2022/06/09 12:10:00;;;;;;;10.18;5.80;;;;;;;;;;5018264;28;20077;-66
2022/06/09 12:12:39;;;;;;;6.72;6.15;;;;;;;;;;5021535;28;20065;-66
2022/06/09 12:15:47;;;;;;;8.40;6.80;;;;;;;;;;5017801;28;20124;-65
2022/06/09 12:18:13;;;;;;;6.45;5.95;;;;;;;;;;5021067;28;20117;-67
2022/06/09 12:20:58;;;;;;;8.10;5.82;;;;;;;;;;5025033;28;20113;-66
2022/06/09 12:23:34;;;;;;;6.60;5.93;;;;;;;;;;5020928;28;20116;-66
2022/06/09 12:26:08;;;;;;;6.60;5.70;;;;;;;;;;5017810;28;20496;-67
2022/06/09 12:28:44;;;;;;;6.72;6.00;;;;;;;;;;5027485;28;20041;-67
2022/06/09 12:31:13;;;;;;;6.15;5.60;;;;;;;;;;5021956;28;20103;-67
2022/06/09 12:34:01;;;;;;;6.10;5.70;;;;;;;;;;5006788;28;20496;-66
2022/06/09 12:37:00;;;;;;;6.22;5.72;;;;;;;;;;5009283;28;20034;-67
2022/06/09 12:39:28;;;;;;;6.90;5.93;;;;;;;;;;5009229;28;20396;-66
2022/06/09 12:41:58;;;;;;;6.22;5.70;;;;;;;;;;5020859;28;20445;-66
2022/06/09 12:44:23;;;;;;;6.38;5.88;;;;;;;;;;5023656;28;20037;-67
2022/06/09 12:47:00;;;;;;;5.70;5.30;;;;;;;;;;5021302;28;20042;-66
2022/06/09 12:49:34;;;;;;;7.90;5.68;;;;;;;;;;5013554;28;20038;-66
2022/06/09 12:52:00;;;;;;;6.30;5.70;;;;;;;;;;5022804;28;20033;-66
2022/06/09 12:54:36;;;;;;;6.43;5.70;;;;;;;;;;5027090;28;20560;-66
2022/06/09 12:57:14;;;;;;;5.90;5.40;;;;;;;;;;5021050;28;21617;-66
2022/06/09 12:59:41;;;;;;;5.90;5.40;;;;;;;;;;5021772;28;20037;-66
2022/06/09 13:02:13;;;;;;;5.90;5.35;;;;;;;;;;5006914;28;20705;-66
2022/06/09 13:05:01;;;;;;;6.53;5.88;;;;;;;;;;5011963;28;20045;-67
2022/06/09 13:07:34;;;;;;;6.43;5.88;;;;;;;;;;5020169;28;20505;-67
2022/06/09 13:10:05;;;;;;;7.57;5.72;;;;;;;;;;5016742;28;20026;-66
2022/06/09 13:12:50;;;;;;;7.05;5.72;;;;;;;;;;5016319;28;20443;-67
2022/06/09 13:15:34;;;;;;;6.35;5.75;;;;;;;;;;5014400;28;20473;-66
2022/06/09 13:18:02;;;;;;;6.30;5.70;;;;;;;;;;5016610;28;20037;-67
2022/06/09 13:20:29;;;;;;;6.72;6.00;;;;;;;;;;5014158;28;20065;-67
2022/06/09 13:22:55;;;;;;;6.10;5.60;;;;;;;;;;5016434;28;20524;-67
2022/06/09 13:25:24;;;;;;;6.38;5.80;;;;;;;;;;5020809;28;20064;-67
2022/06/09 13:27:51;;;;;;;9.43;5.82;;;;;;;;;;5015501;28;20033;-67
2022/06/09 13:30:37;;;;;;;6.30;5.65;;;;;;;;;;5007081;28;20084;-66
2022/06/09 13:33:02;;;;;;;5.95;5.32;;;;;;;;;;4988012;28;20687;-66
2022/06/09 13:35:39;;;;;;;8.60;6.45;;;;;;;;;;5006437;28;20030;-67
2022/06/09 13:38:29;;;;;;;6.85;5.53;;;;;;;;;;5009085;28;20113;-65
2022/06/09 13:41:02;;;;;;;6.10;5.50;;;;;;;;;;5014222;28;20067;-66
2022/06/09 13:43:36;;;;;;;7.10;5.70;;;;;;;;;;5019809;28;20095;-66
2022/06/09 13:46:10;;;;;;;6.45;5.85;;;;;;;;;;5018046;28;20068;-66
2022/06/09 13:48:39;;;;;;;6.13;5.57;;;;;;;;;;5005205;28;20046;-66
2022/06/09 13:51:06;;;;;;;6.35;5.93;;;;;;;;;;5014121;28;20114;-68
2022/06/09 13:53:46;;;;;;;8.07;5.90;;;;;;;;;;5021684;28;20042;-66
2022/06/09 13:56:13;;;;;;;6.47;5.88;;;;;;;;;;5017330;28;20047;-66
2022/06/09 13:58:39;;;;;;;6.38;5.65;;;;;;;;;;5005858;28;20244;-66
2022/06/09 14:01:07;;;;;;;6.28;5.78;;;;;;;;;;5007703;28;20807;-67
2022/06/09 14:03:43;;;;;;;6.30;5.80;;;;;;;;;;5009817;28;20041;-67
2022/06/09 14:06:12;;;;;;;6.80;5.93;;;;;;;;;;5016519;28;20051;-67
2022/06/09 14:08:41;;;;;;;6.28;5.70;;;;;;;;;;5015667;28;20041;-66
2022/06/09 14:11:14;;;;;;;8.77;5.80;;;;;;;;;;5018821;28;20108;-67
2022/06/09 14:13:40;;;;;;;6.07;5.53;;;;;;;;;;5019955;28;20075;-65
2022/06/09 14:16:06;;;;;;;6.85;5.35;;;;;;;;;;5014135;28;20121;-67
2022/06/09 14:18:33;;;;;;;5.72;5.20;;;;;;;;;;5019664;28;20540;-66
2022/06/09 14:21:00;;;;;;;8.43;5.40;;;;;;;;;;5022496;28;20519;-67
2022/06/09 14:23:29;;;;;;;5.38;5.00;;;;;;;;;;5016647;28;20037;-65
2022/06/09 14:26:02;;;;;;;6.40;5.22;;;;;;;;;;5016164;28;20052;-66
2022/06/09 14:28:31;;;;;;;6.00;5.40;;;;;;;;;;5013110;28;20112;-66
2022/06/09 14:30:57;;;;;;;8.13;5.35;;;;;;;;;;5015615;28;20733;-66
2022/06/09 14:33:23;;;;;;;5.63;5.22;;;;;;;;;;5022094;28;20041;-66
2022/06/09 14:35:50;;;;;;;6.18;5.03;;;;;;;;;;5014759;28;20037;-67
2022/06/09 14:38:16;;;;;;;6.50;5.53;;;;;;;;;;5017813;28;20060;-66
2022/06/09 14:40:48;;;;;;;7.18;5.75;;;;;;;;;;5018837;28;20105;-66
2022/06/09 14:43:13;;;;;;;6.15;5.30;;;;;;;;;;5019724;28;20120;-65
2022/06/09 14:45:41;;;;;;;5.60;5.10;;;;;;;;;;5017795;28;20733;-67
2022/06/09 14:48:13;;;;;;;7.55;5.13;;;;;;;;;;5017099;28;20037;-66
2022/06/09 14:50:39;;;;;;;10.50;5.80;;;;;;;;;;5017001;28;20040;-67
2022/06/09 14:53:05;;;;;;;6.75;5.70;;;;;;;;;;5009190;28;20018;-67
2022/06/09 14:55:35;;;;;;;6.20;5.57;;;;;;;;;;5010727;28;20040;-66
2022/06/09 14:58:00;;;;;;;6.13;5.15;;;;;;;;;;5015263;28;20137;-66
2022/06/09 15:00:28;;;;;;;6.63;5.30;;;;;;;;;;5014607;28;20072;-67
2022/06/09 15:02:56;;;;;;;7.18;5.65;;;;;;;;;;5015306;28;20794;-65
2022/06/09 15:05:23;;;;;;;6.07;5.55;;;;;;;;;;5019218;28;20044;-66
2022/06/09 15:07:50;;;;;;;7.05;6.35;;;;;;;;;;5012982;28;20034;-66
2022/06/09 15:10:22;;;;;;;6.90;5.70;;;;;;;;;;5012797;28;20120;-66
2022/06/09 15:12:49;;;;;;;8.00;5.40;;;;;;;;;;5017337;28;20083;-65
2022/06/09 15:15:15;;;;;;;6.68;5.85;;;;;;;;;;5015391;28;20061;-67
2022/06/09 15:17:42;;;;;;;6.22;5.63;;;;;;;;;;5013272;28;20080;-67
2022/06/09 15:20:09;;;;;;;6.03;5.57;;;;;;;;;;5014212;28;20052;-66
2022/06/09 15:22:35;;;;;;;6.93;5.88;;;;;;;;;;5017245;28;20041;-67
2022/06/09 15:25:01;;;;;;;6.05;5.55;;;;;;;;;;5014822;28;20041;-66
2022/06/09 15:27:26;;;;;;;6.32;5.72;;;;;;;;;;5013352;28;20044;-66
2022/06/09 15:29:52;;;;;;;6.03;5.50;;;;;;;;;;5011580;28;20037;-67